Time;durP1;ratioP1;P1;durP2;ratioP2;P2;SDS_P1;SDS_P2;PMS_P1;PMS_P2;Temp;Humidity;BMP_temperature;BMP_pressure;BME280_temperature;BME280_humidity;BME280_pressure;Samples;Min_cycle;Max_cycle;Signal;HPM_P1;HPM_P2
2023/01/24 00:01:22;;;;;;;25.75;19.67;;;2.60;99.90;;;;;;4984959;28;19925;-62
2023/01/24 00:03:48;;;;;;;27.00;19.70;;;3.30;99.90;;;;;;4965081;28;20058;-62
2023/01/24 00:06:14;;;;;;;28.75;20.73;;;2.40;99.90;;;;;;4982925;28;20158;-61
2023/01/24 00:08:40;;;;;;;25.60;19.75;;;2.80;99.90;;;;;;4945199;28;1108409;-61
2023/01/24 00:11:09;;;;;;;27.45;20.50;;;3.00;99.90;;;;;;4983995;28;20066;-59
2023/01/24 00:13:35;;;;;;;29.48;21.38;;;2.30;99.90;;;;;;4984493;28;20093;-56
2023/01/24 00:16:08;;;;;;;26.88;20.48;;;2.20;99.90;;;;;;4985261;28;20126;-61
2023/01/24 00:18:34;;;;;;;28.08;20.75;;;2.50;99.90;;;;;;4985214;28;20116;-60
2023/01/24 00:21:14;;;;;;;27.40;21.13;;;2.80;99.90;;;;;;4983975;28;20434;-60
2023/01/24 00:23:45;;;;;;;29.23;22.00;;;2.10;99.90;;;;;;4984961;28;20078;-60
2023/01/24 00:26:12;;;;;;;29.85;21.92;;;3.10;99.90;;;;;;4967963;28;20050;-61
2023/01/24 00:28:37;;;;;;;30.88;21.58;;;3.00;99.90;;;;;;4967740;28;20128;-62
2023/01/24 00:31:03;;;;;;;30.33;22.42;;;3.30;99.90;;;;;;4985136;28;20470;-60
2023/01/24 00:33:30;;;;;;;29.48;21.98;;;2.80;99.90;;;;;;4984882;28;20085;-58
2023/01/24 00:35:56;;;;;;;29.60;22.33;;;2.00;99.90;;;;;;4984079;28;20042;-59
2023/01/24 00:38:22;;;;;;;28.90;22.20;;;2.50;99.90;;;;;;4989061;28;20562;-55
2023/01/24 00:40:48;;;;;;;27.85;21.63;;;3.10;99.90;;;;;;4989217;28;20074;-62
2023/01/24 00:43:14;;;;;;;31.25;22.20;;;2.60;99.90;;;;;;4988464;28;20518;-59
2023/01/24 00:45:40;;;;;;;32.80;23.27;;;2.90;99.90;;;;;;4989101;28;20074;-58
2023/01/24 00:48:07;;;;;;;32.42;23.02;;;2.20;99.90;;;;;;4989378;28;20113;-62
2023/01/24 00:50:33;;;;;;;32.33;22.65;;;3.30;99.90;;;;;;4987817;28;20521;-59
2023/01/24 00:53:00;;;;;;;30.65;23.10;;;3.20;99.90;;;;;;4988633;28;20049;-60
2023/01/24 00:55:26;;;;;;;31.95;23.90;;;3.40;99.90;;;;;;4988658;28;20048;-62
2023/01/24 00:57:51;;;;;;;31.17;22.85;;;2.70;99.90;;;;;;4988451;28;20050;-62
2023/01/24 01:00:18;;;;;;;32.10;23.65;;;2.90;99.90;;;;;;4988035;28;20053;-60
2023/01/24 01:02:43;;;;;;;32.17;23.00;;;2.10;99.90;;;;;;4988470;28;20034;-56
2023/01/24 01:05:09;;;;;;;31.63;23.88;;;2.10;99.90;;;;;;4970405;28;20088;-62
2023/01/24 01:07:35;;;;;;;32.55;24.48;;;2.90;99.90;;;;;;4987566;28;20054;-61
2023/01/24 01:10:01;;;;;;;32.92;23.90;;;2.40;99.90;;;;;;4988824;28;20047;-61
2023/01/24 01:12:27;;;;;;;33.58;23.23;;;2.80;99.90;;;;;;4988506;28;20042;-61
2023/01/24 01:14:52;;;;;;;32.08;24.48;;;2.20;99.90;;;;;;4970411;28;20050;-58
2023/01/24 01:17:18;;;;;;;33.47;24.98;;;2.10;99.90;;;;;;4988276;28;20487;-61
2023/01/24 01:19:44;;;;;;;31.20;23.42;;;2.30;99.90;;;;;;4987584;28;20054;-58
2023/01/24 01:22:10;;;;;;;35.75;24.67;;;2.00;99.90;;;;;;4988099;28;20046;-58
2023/01/24 01:24:35;;;;;;;34.47;24.38;;;2.10;99.90;;;;;;4987960;28;20046;-62
2023/01/24 01:27:01;;;;;;;35.08;25.95;;;3.20;99.90;;;;;;4988244;28;20030;-57
2023/01/24 01:29:27;;;;;;;36.70;25.50;;;2.30;99.90;;;;;;4988602;28;20061;-59
2023/01/24 01:31:52;;;;;;;34.67;24.38;;;2.10;99.90;;;;;;4987650;28;20074;-61
2023/01/24 01:34:18;;;;;;;31.38;23.77;;;3.20;99.90;;;;;;4987279;28;20050;-58
2023/01/24 01:36:44;;;;;;;32.55;23.17;;;3.40;99.90;;;;;;4987625;28;20133;-62
2023/01/24 01:39:10;;;;;;;35.33;25.23;;;2.40;99.90;;;;;;4987985;28;20476;-62
2023/01/24 01:41:35;;;;;;;34.47;25.05;;;2.10;99.90;;;;;;4987533;28;20082;-60
2023/01/24 01:44:49;;;;;;;36.20;25.50;;;3.60;99.90;;;;;;4988131;28;20044;-60
2023/01/24 01:47:36;;;;;;;32.63;23.83;;;2.10;99.90;;;;;;4888897;29;20061;-62
2023/01/24 01:50:25;;;;;;;35.60;25.45;;;2.10;99.90;;;;;;4986816;28;20092;-60
2023/01/24 01:52:51;;;;;;;32.75;24.42;;;3.10;99.90;;;;;;4987856;28;20050;-60
2023/01/24 01:55:20;;;;;;;34.15;24.05;;;2.90;99.90;;;;;;4987127;28;20050;-59
2023/01/24 01:57:48;;;;;;;36.50;24.80;;;3.10;99.90;;;;;;4987569;28;20573;-61
2023/01/24 02:00:18;;;;;;;32.95;24.98;;;2.60;99.90;;;;;;4987439;28;20423;-59
2023/01/24 02:02:49;;;;;;;34.92;25.45;;;2.20;99.90;;;;;;4987250;28;20505;-59
2023/01/24 02:05:19;;;;;;;34.33;25.02;;;3.40;99.90;;;;;;4986809;28;20085;-61
2023/01/24 02:07:51;;;;;;;33.80;24.90;;;2.10;99.90;;;;;;4979219;28;20065;-57
2023/01/24 02:10:22;;;;;;;33.88;24.67;;;2.10;99.90;;;;;;4968276;28;20431;-62
2023/01/24 02:18:08;;;;;;;34.42;25.35;;;2.90;99.90;;;;;;4968835;28;20065;-61
2023/01/24 02:20:34;;;;;;;34.60;24.60;;;2.60;99.90;;;;;;4980510;28;20054;-62
2023/01/24 02:23:15;;;;;;;34.22;25.02;;;2.90;99.90;;;;;;4988372;28;20050;-59
2023/01/24 02:25:44;;;;;;;35.15;24.77;;;2.50;99.90;;;;;;4988107;28;20092;-61
2023/01/24 02:28:10;;;;;;;36.13;25.23;;;2.90;99.90;;;;;;4988270;28;20519;-62
2023/01/24 02:30:37;;;;;;;36.33;25.85;;;3.70;99.90;;;;;;4987902;28;20096;-62
2023/01/24 02:33:14;;;;;;;36.00;25.20;;;2.90;99.90;;;;;;4987498;28;20054;-60
2023/01/24 02:35:40;;;;;;;33.47;24.75;;;2.90;99.90;;;;;;4987189;28;20130;-55
2023/01/24 02:38:14;;;;;;;32.83;24.30;;;3.20;99.90;;;;;;4988239;28;20077;-59
2023/01/24 02:40:41;;;;;;;34.63;24.70;;;3.00;99.90;;;;;;4987335;28;20097;-60
2023/01/24 02:43:10;;;;;;;36.63;25.77;;;2.10;99.90;;;;;;4987850;28;20077;-61
2023/01/24 02:45:36;;;;;;;33.47;25.60;;;2.90;99.90;;;;;;4986830;28;20133;-62
2023/01/24 02:48:02;;;;;;;34.42;24.40;;;2.90;99.90;;;;;;4986296;28;20328;-61
2023/01/24 02:53:29;;;;;;;36.42;26.33;;;2.90;99.90;;;;;;4986839;28;20533;-62
2023/01/24 02:53:31;;;;;;;36.00;25.90;;;2.80;99.90;;;;;;4987299;28;20062;-62
2023/01/24 02:58:47;;;;;;;37.30;25.75;;;2.30;99.90;;;;;;4984850;28;20050;-61
2023/01/24 03:01:14;;;;;;;37.50;26.05;;;2.20;99.90;;;;;;4987275;28;20499;-63
2023/01/24 03:03:42;;;;;;;35.88;25.38;;;2.00;99.90;;;;;;4985400;28;20065;-62
2023/01/24 03:06:10;;;;;;;35.38;26.38;;;2.70;99.90;;;;;;4985693;28;20053;-62
2023/01/24 03:08:36;;;;;;;40.13;26.38;;;2.90;99.90;;;;;;4987257;28;20388;-62
2023/01/24 03:11:03;;;;;;;34.50;25.50;;;2.40;99.90;;;;;;4987272;28;20458;-61
2023/01/24 03:35:25;;;;;;;28.05;21.77;;;3.20;99.90;;;;;;5025201;28;20049;-60
2023/01/24 03:40:36;;;;;;;27.63;21.55;;;2.10;99.90;;;;;;5026014;28;20085;-62
2023/01/24 03:43:03;;;;;;;28.25;21.33;;;2.60;99.90;;;;;;5024952;28;20456;-58
2023/01/24 03:45:32;;;;;;;27.33;21.33;;;2.00;99.90;;;;;;5007732;28;20135;-61
2023/01/24 03:48:12;;;;;;;30.10;21.98;;;2.80;99.90;;;;;;5025146;28;20038;-61
2023/01/24 03:53:26;;;;;;;26.65;19.52;;;2.20;99.90;;;;;;5025704;28;20064;-62
2023/01/24 03:56:01;;;;;;;30.95;19.80;;;2.40;99.90;;;;;;5025371;28;20049;-62
2023/01/24 03:58:28;;;;;;;26.70;19.60;;;2.10;99.90;;;;;;5025354;28;20072;-62
2023/01/24 04:00:55;;;;;;;24.52;18.27;;;2.20;99.90;;;;;;5023602;28;20127;-56
2023/01/24 04:03:21;;;;;;;26.40;19.35;;;2.60;99.90;;;;;;5024553;28;20420;-62
2023/01/24 04:05:48;;;;;;;24.63;19.60;;;2.60;99.90;;;;;;5025413;28;20049;-63
2023/01/24 04:08:14;;;;;;;22.38;18.42;;;2.60;99.90;;;;;;5025514;28;20444;-61
2023/01/24 04:10:40;;;;;;;23.13;18.63;;;2.70;99.90;;;;;;5023973;28;20044;-55
2023/01/24 04:13:06;;;;;;;24.65;19.38;;;3.20;99.90;;;;;;5025348;28;20049;-58
2023/01/24 04:15:32;;;;;;;25.20;19.48;;;2.80;99.90;;;;;;5025289;28;20050;-61
2023/01/24 04:18:01;;;;;;;22.30;17.63;;;2.60;99.90;;;;;;5024084;28;20401;-61
2023/01/24 04:20:30;;;;;;;26.98;19.67;;;2.80;99.90;;;;;;5025083;28;20513;-60
2023/01/24 04:22:56;;;;;;;23.33;18.70;;;2.70;99.90;;;;;;5025171;28;20041;-59
2023/01/24 04:25:22;;;;;;;27.27;20.50;;;2.40;99.90;;;;;;5025214;28;20048;-62
2023/01/24 04:27:48;;;;;;;25.85;19.90;;;2.30;99.90;;;;;;5025889;28;20041;-57
2023/01/24 04:30:16;;;;;;;24.80;19.42;;;3.40;99.90;;;;;;5025470;28;20513;-61
2023/01/24 04:32:42;;;;;;;25.05;20.60;;;2.80;99.90;;;;;;5025247;28;20538;-61
2023/01/24 04:35:09;;;;;;;26.85;20.58;;;2.50;99.90;;;;;;5025221;28;20084;-62
2023/01/24 04:37:35;;;;;;;24.42;19.73;;;2.30;99.90;;;;;;5025496;28;20037;-62
2023/01/24 04:40:01;;;;;;;26.52;20.02;;;2.80;99.90;;;;;;5024369;28;20064;-61
2023/01/24 04:42:27;;;;;;;25.55;18.63;;;2.50;99.90;;;;;;5024870;28;20045;-61
2023/01/24 04:44:54;;;;;;;23.67;19.13;;;2.60;99.90;;;;;;5025063;28;20128;-60
2023/01/24 04:47:19;;;;;;;24.20;19.65;;;2.60;99.90;;;;;;5025108;28;20425;-62
2023/01/24 04:49:45;;;;;;;26.40;21.10;;;2.60;99.90;;;;;;5024130;28;20060;-62
2023/01/24 04:52:12;;;;;;;26.85;20.70;;;2.20;99.90;;;;;;5024700;28;20046;-60
2023/01/24 04:54:41;;;;;;;26.67;20.15;;;2.80;99.90;;;;;;5024375;28;20049;-62
2023/01/24 04:57:10;;;;;;;26.15;20.80;;;2.30;99.90;;;;;;5025050;28;20052;-61
2023/01/24 04:59:36;;;;;;;28.40;21.75;;;3.20;99.90;;;;;;5024643;28;20050;-62
2023/01/24 05:02:02;;;;;;;29.08;23.25;;;2.20;99.90;;;;;;5024824;28;20034;-60
2023/01/24 05:04:28;;;;;;;29.67;23.08;;;2.70;99.90;;;;;;5023822;28;20138;-60
2023/01/24 05:06:54;;;;;;;27.65;21.83;;;2.40;99.90;;;;;;5024976;28;20073;-59
2023/01/24 05:09:20;;;;;;;30.95;22.75;;;2.30;99.90;;;;;;5024429;28;20500;-62
2023/01/24 05:11:46;;;;;;;27.08;22.30;;;2.30;99.90;;;;;;5024686;28;20075;-58
2023/01/24 05:14:12;;;;;;;29.75;22.20;;;2.60;99.90;;;;;;5024588;28;20315;-60
2023/01/24 05:16:38;;;;;;;26.90;22.00;;;2.30;99.90;;;;;;5025275;28;20046;-62
2023/01/24 05:19:05;;;;;;;26.70;21.48;;;2.50;99.90;;;;;;5023498;28;20065;-62
2023/01/24 05:21:31;;;;;;;26.67;21.90;;;2.60;99.90;;;;;;5024153;28;20254;-61
2023/01/24 05:23:57;;;;;;;25.10;19.95;;;2.60;99.90;;;;;;5028090;28;20045;-61
2023/01/24 05:26:25;;;;;;;25.08;20.30;;;2.60;99.90;;;;;;5028453;28;20038;-59
2023/01/24 05:28:52;;;;;;;23.90;20.13;;;2.40;99.90;;;;;;5027495;28;20092;-60
2023/01/24 05:31:18;;;;;;;25.15;20.38;;;2.20;99.90;;;;;;5028338;28;20452;-62
2023/01/24 05:33:44;;;;;;;26.15;20.20;;;2.20;99.90;;;;;;5027773;28;20062;-59
2023/01/24 05:36:12;;;;;;;27.40;20.42;;;2.70;99.90;;;;;;5026551;28;20354;-62
2023/01/24 05:38:38;;;;;;;26.45;20.90;;;2.30;99.90;;;;;;5028647;28;20037;-62
2023/01/24 05:41:10;;;;;;;26.42;20.85;;;2.00;99.90;;;;;;5026795;28;20049;-62
2023/01/24 05:43:36;;;;;;;26.55;20.77;;;2.10;99.90;;;;;;5027092;28;20037;-61
2023/01/24 05:46:11;;;;;;;25.38;20.27;;;2.10;99.90;;;;;;5028008;28;20092;-61
2023/01/24 05:48:37;;;;;;;;;;;2.20;99.90;;;;;;5028297;28;20437;-61
2023/01/24 05:51:06;;;;;;;25.98;20.08;;;2.60;99.90;;;;;;5027811;28;19991;-57
2023/01/24 05:53:35;;;;;;;23.60;18.67;;;2.10;99.90;;;;;;5028199;28;20129;-62
2023/01/24 05:56:05;;;;;;;22.38;18.50;;;2.60;99.90;;;;;;5027866;28;20056;-61
2023/01/24 05:58:34;;;;;;;20.75;17.25;;;2.50;99.90;;;;;;5026980;28;20049;-60
2023/01/24 06:01:00;;;;;;;24.13;18.27;;;2.60;99.90;;;;;;5027831;28;20041;-59
2023/01/24 06:03:26;;;;;;;22.33;18.33;;;3.10;99.90;;;;;;5009285;28;20046;-61
2023/01/24 06:05:53;;;;;;;21.42;18.33;;;2.30;99.90;;;;;;5027548;28;20081;-59
2023/01/24 06:08:20;;;;;;;22.48;17.58;;;2.60;99.90;;;;;;5028022;28;20085;-56
2023/01/24 06:10:46;;;;;;;21.88;17.02;;;2.10;99.90;;;;;;5027735;28;20095;-62
2023/01/24 06:13:12;;;;;;;22.00;17.98;;;2.10;99.90;;;;;;5027375;28;20081;-59
2023/01/24 06:15:39;;;;;;;21.45;17.45;;;2.50;99.90;;;;;;5027754;28;20045;-62
2023/01/24 06:18:06;;;;;;;20.73;17.30;;;2.60;99.90;;;;;;5026445;28;20076;-62
2023/01/24 06:20:32;;;;;;;21.10;17.55;;;2.60;99.90;;;;;;5026794;28;20128;-58
2023/01/24 06:23:06;;;;;;;21.77;17.40;;;2.50;99.90;;;;;;5027418;28;20048;-62
2023/01/24 06:25:32;;;;;;;21.35;17.15;;;2.50;99.90;;;;;;5025683;28;20501;-61
2023/01/24 06:27:59;;;;;;;20.15;15.68;;;2.10;99.90;;;;;;5025571;28;20225;-62
2023/01/24 06:30:25;;;;;;;19.65;15.40;;;2.40;99.90;;;;;;5025892;28;20161;-59
2023/01/24 06:33:07;;;;;;;19.02;15.32;;;2.50;99.90;;;;;;5027079;28;20052;-61
2023/01/24 06:36:04;;;;;;;19.35;15.02;;;2.20;99.90;;;;;;5025767;28;20041;-57
2023/01/24 06:38:30;;;;;;;18.13;14.18;;;2.20;99.90;;;;;;5025958;28;20052;-59
2023/01/24 06:40:57;;;;;;;17.60;14.38;;;2.10;99.90;;;;;;5025932;28;20041;-61
2023/01/24 06:43:23;;;;;;;18.63;14.88;;;2.50;99.90;;;;;;5026192;28;20073;-61
2023/01/24 06:45:49;;;;;;;18.95;13.80;;;2.60;99.90;;;;;;5026060;28;20677;-55
2023/01/24 06:48:15;;;;;;;18.05;13.80;;;2.70;99.90;;;;;;5024112;28;20049;-62
2023/01/24 06:50:41;;;;;;;18.27;14.02;;;2.60;99.90;;;;;;5025942;28;20041;-60
2023/01/24 06:53:07;;;;;;;17.92;13.52;;;2.60;99.90;;;;;;5025908;28;20117;-61
2023/01/24 06:55:34;;;;;;;17.75;13.40;;;2.00;99.90;;;;;;5025594;28;20057;-58
2023/01/24 06:58:01;;;;;;;18.15;14.10;;;2.10;99.90;;;;;;5026062;28;20073;-62
2023/01/24 07:00:31;;;;;;;18.40;14.65;;;3.10;99.90;;;;;;5025655;28;20421;-59
2023/01/24 07:03:06;;;;;;;17.85;13.77;;;2.10;99.90;;;;;;5024752;28;20049;-61
2023/01/24 07:05:34;;;;;;;17.80;14.00;;;2.40;99.90;;;;;;5025915;28;20155;-61
2023/01/24 07:07:59;;;;;;;18.40;13.60;;;2.10;99.90;;;;;;5024274;28;20076;-61
2023/01/24 07:10:26;;;;;;;17.27;12.52;;;2.80;99.90;;;;;;5025297;28;20104;-61
2023/01/24 07:12:51;;;;;;;16.60;12.60;;;2.60;99.90;;;;;;5025361;28;20436;-62
2023/01/24 07:15:17;;;;;;;17.60;13.30;;;2.50;99.90;;;;;;5026032;28;20050;-62
2023/01/24 07:17:44;;;;;;;17.92;13.25;;;2.70;99.90;;;;;;5024685;28;20045;-60
2023/01/24 07:20:12;;;;;;;16.17;12.60;;;2.20;99.90;;;;;;5025542;28;20408;-62
2023/01/24 07:22:38;;;;;;;17.17;12.98;;;2.50;99.90;;;;;;5007639;28;20049;-59
2023/01/24 07:25:11;;;;;;;18.30;12.82;;;2.40;99.90;;;;;;5025299;28;20041;-61
2023/01/24 07:27:36;;;;;;;15.95;13.15;;;2.30;99.90;;;;;;5025388;28;20045;-62
2023/01/24 07:30:03;;;;;;;16.50;12.07;;;2.00;99.90;;;;;;5025428;28;20052;-60
2023/01/24 07:32:29;;;;;;;16.80;12.63;;;2.10;99.90;;;;;;5025136;28;20041;-61
2023/01/24 07:34:54;;;;;;;16.20;13.02;;;2.50;99.90;;;;;;5023143;28;20308;-61
2023/01/24 07:37:21;;;;;;;15.52;12.23;;;2.10;99.90;;;;;;5025458;28;20490;-60
2023/01/24 07:39:47;;;;;;;16.80;12.68;;;2.60;99.90;;;;;;5025357;28;20039;-60
2023/01/24 07:42:12;;;;;;;17.52;12.73;;;2.10;99.90;;;;;;5025158;28;20938;-59
2023/01/24 07:44:38;;;;;;;15.50;12.45;;;3.30;99.90;;;;;;5024807;28;20049;-59
2023/01/24 07:47:04;;;;;;;16.45;12.45;;;2.00;99.90;;;;;;5024748;28;20049;-60
2023/01/24 07:49:29;;;;;;;15.57;11.98;;;3.00;99.90;;;;;;5023673;28;20620;-59
2023/01/24 07:51:55;;;;;;;15.95;12.25;;;2.50;99.90;;;;;;5023360;28;20045;-59
2023/01/24 07:54:21;;;;;;;15.35;12.15;;;2.10;99.90;;;;;;5024898;28;20076;-63
2023/01/24 07:56:46;;;;;;;14.75;11.68;;;2.30;99.90;;;;;;5024349;28;20076;-59
2023/01/24 07:59:12;;;;;;;15.25;12.15;;;2.40;99.90;;;;;;5022742;28;20041;-62
2023/01/24 08:01:38;;;;;;;14.48;11.45;;;2.80;99.90;;;;;;5005232;28;20046;-63
2023/01/24 08:04:03;;;;;;;15.68;11.77;;;2.40;99.90;;;;;;5004183;28;20099;-59
2023/01/24 08:06:29;;;;;;;15.88;12.32;;;2.50;99.90;;;;;;5004686;28;20052;-61
2023/01/24 08:08:55;;;;;;;14.68;11.90;;;2.10;99.90;;;;;;5005028;28;20069;-61
2023/01/24 08:11:21;;;;;;;15.50;11.30;;;2.50;99.90;;;;;;5005123;28;20046;-62
2023/01/24 08:13:49;;;;;;;14.65;11.15;;;2.20;99.90;;;;;;5004491;28;20200;-61
2023/01/24 08:16:15;;;;;;;16.05;11.23;;;2.30;99.90;;;;;;5004832;28;20048;-63
2023/01/24 08:18:41;;;;;;;15.40;12.27;;;2.50;99.90;;;;;;5004125;28;20516;-61
2023/01/24 08:21:07;;;;;;;15.10;12.23;;;2.20;99.90;;;;;;5004234;28;20042;-59
2023/01/24 08:23:33;;;;;;;14.68;11.77;;;2.60;99.90;;;;;;5004683;28;20077;-57
2023/01/24 08:26:00;;;;;;;16.85;11.85;;;2.60;99.90;;;;;;5004824;28;20081;-62
2023/01/24 08:28:26;;;;;;;15.50;11.75;;;2.20;99.90;;;;;;5004850;28;20049;-60
2023/01/24 08:30:52;;;;;;;14.80;11.90;;;3.00;99.90;;;;;;5004965;28;20044;-57
2023/01/24 08:33:18;;;;;;;15.07;11.85;;;2.60;99.90;;;;;;5004045;28;20125;-58
2023/01/24 08:35:45;;;;;;;15.25;12.00;;;2.70;99.90;;;;;;5004609;28;20042;-61
2023/01/24 08:38:11;;;;;;;14.80;11.77;;;2.40;99.90;;;;;;5004341;28;20046;-62
2023/01/24 08:40:37;;;;;;;14.15;11.52;;;2.60;99.90;;;;;;5004781;28;20281;-63
2023/01/24 08:43:03;;;;;;;15.05;11.80;;;2.70;99.90;;;;;;5005076;28;20526;-63
2023/01/24 08:45:29;;;;;;;15.00;11.70;;;2.40;99.90;;;;;;5003988;28;20490;-60
2023/01/24 08:47:55;;;;;;;15.77;11.77;;;2.60;99.90;;;;;;5003986;28;20033;-60
2023/01/24 08:50:21;;;;;;;15.38;11.93;;;2.30;99.90;;;;;;5004808;28;20061;-61
2023/01/24 08:52:47;;;;;;;16.52;11.50;;;2.60;99.90;;;;;;5003785;28;20038;-57
2023/01/24 08:55:14;;;;;;;13.60;10.85;;;2.40;99.90;;;;;;5004752;28;20749;-61
2023/01/24 08:57:40;;;;;;;15.55;11.48;;;2.10;99.90;;;;;;5005389;28;20046;-60
2023/01/24 09:00:06;;;;;;;14.88;10.90;;;2.60;99.90;;;;;;5006654;28;20049;-63
2023/01/24 09:02:34;;;;;;;14.93;11.25;;;2.20;99.90;;;;;;5006745;28;20081;-60
2023/01/24 09:05:00;;;;;;;16.05;11.48;;;2.20;99.90;;;;;;5008185;28;20054;-64
2023/01/24 09:07:25;;;;;;;15.15;11.48;;;2.20;99.90;;;;;;5008139;28;20068;-61
2023/01/24 09:09:51;;;;;;;15.60;11.60;;;2.50;99.90;;;;;;5007917;28;20049;-63
2023/01/24 09:12:17;;;;;;;15.25;11.85;;;2.70;99.90;;;;;;5008381;28;20038;-61
2023/01/24 09:14:42;;;;;;;15.05;11.13;;;2.30;99.90;;;;;;5007676;28;20108;-61
2023/01/24 09:17:08;;;;;;;16.63;11.93;;;2.70;99.90;;;;;;5007240;28;20042;-56
2023/01/24 09:19:33;;;;;;;15.57;11.32;;;2.30;99.90;;;;;;5007474;28;20486;-63
2023/01/24 09:21:59;;;;;;;15.70;11.98;;;2.70;99.90;;;;;;5006507;28;20046;-62
2023/01/24 09:24:25;;;;;;;15.68;12.10;;;3.30;99.90;;;;;;5007622;28;20061;-57
2023/01/24 09:26:50;;;;;;;19.13;12.38;;;2.50;99.90;;;;;;5007494;28;20038;-62
2023/01/24 09:29:16;;;;;;;14.77;11.45;;;3.20;99.90;;;;;;5007446;28;20042;-64
2023/01/24 09:31:42;;;;;;;15.80;12.45;;;2.70;99.90;;;;;;5007768;28;20434;-60
2023/01/24 09:34:08;;;;;;;16.48;12.25;;;2.90;99.90;;;;;;5005019;28;20054;-59
2023/01/24 09:36:33;;;;;;;14.27;11.35;;;3.50;99.90;;;;;;5007665;28;20077;-63
2023/01/24 09:38:59;;;;;;;15.13;11.40;;;2.50;99.90;;;;;;5007674;28;20045;-61
2023/01/24 09:41:31;;;;;;;15.52;11.60;;;3.00;99.90;;;;;;5007347;28;20104;-57
2023/01/24 09:44:00;;;;;;;16.05;12.18;;;2.80;99.90;;;;;;5006124;28;20045;-56
2023/01/24 09:46:45;;;;;;;16.02;12.00;;;2.30;99.90;;;;;;5007783;28;20057;-63
2023/01/24 09:49:16;;;;;;;16.35;11.77;;;2.60;99.90;;;;;;5006940;28;20054;-60
2023/01/24 09:51:50;;;;;;;15.27;11.57;;;2.80;99.90;;;;;;5007436;28;20129;-62
2023/01/24 09:54:31;;;;;;;15.73;12.10;;;3.10;99.90;;;;;;5006630;28;20142;-62
2023/01/24 09:56:57;;;;;;;16.65;12.90;;;2.70;99.90;;;;;;5007161;28;20042;-62
2023/01/24 09:59:37;;;;;;;15.23;12.27;;;2.40;99.90;;;;;;5007195;28;20048;-57
2023/01/24 10:02:16;;;;;;;15.85;12.60;;;2.40;99.90;;;;;;5006677;28;20088;-59
2023/01/24 10:04:42;;;;;;;17.98;13.48;;;2.70;99.90;;;;;;5006575;28;20042;-62
2023/01/24 10:07:20;;;;;;;17.00;12.60;;;2.40;99.90;;;;;;5006586;28;20384;-62
2023/01/24 10:10:14;;;;;;;18.40;12.70;;;2.90;99.90;;;;;;5006304;28;20038;-60
2023/01/24 10:13:12;;;;;;;16.02;11.52;;;2.50;99.90;;;;;;5002615;28;20069;-57
2023/01/24 10:15:58;;;;;;;16.17;12.55;;;2.60;99.90;;;;;;5005972;28;20054;-62
2023/01/24 10:18:53;;;;;;;18.05;13.82;;;2.60;99.90;;;;;;5004926;28;20054;-60
2023/01/24 10:21:46;;;;;;;17.25;13.43;;;2.70;99.90;;;;;;4980024;28;20065;-61
2023/01/24 10:24:20;;;;;;;17.95;13.52;;;2.70;99.90;;;;;;4986084;28;20105;-60
2023/01/24 10:26:51;;;;;;;18.17;13.50;;;3.00;99.90;;;;;;4985494;28;20030;-62
2023/01/24 10:29:22;;;;;;;17.00;13.35;;;2.90;99.90;;;;;;4985016;28;20234;-63
2023/01/24 10:32:02;;;;;;;18.25;13.48;;;2.70;99.90;;;;;;4986836;28;20450;-60
2023/01/24 10:34:43;;;;;;;17.58;14.07;;;2.70;99.90;;;;;;4986799;28;20132;-59
2023/01/24 10:37:20;;;;;;;18.45;14.65;;;3.00;99.90;;;;;;4986350;28;20100;-57
2023/01/24 10:39:46;;;;;;;16.88;13.73;;;3.00;99.90;;;;;;4986007;28;20121;-60
2023/01/24 10:42:25;;;;;;;17.35;13.82;;;2.90;99.90;;;;;;4986740;28;20081;-62
2023/01/24 10:44:54;;;;;;;17.75;14.15;;;2.60;99.90;;;;;;4986606;28;20127;-65
2023/01/24 10:47:38;;;;;;;17.92;13.90;;;3.00;99.90;;;;;;4985829;28;20811;-63
2023/01/24 10:50:11;;;;;;;18.17;14.27;;;2.70;99.90;;;;;;5018039;28;20380;-62
2023/01/24 10:52:37;;;;;;;18.02;14.52;;;2.70;99.90;;;;;;4986180;28;20046;-63
2023/01/24 10:55:24;;;;;;;17.23;13.40;;;2.80;99.90;;;;;;4986197;28;20399;-65
2023/01/24 10:57:52;;;;;;;17.83;13.73;;;2.70;99.90;;;;;;4984991;28;20046;-57
2023/01/24 11:00:22;;;;;;;19.33;14.43;;;2.90;99.90;;;;;;4986227;28;20046;-65
2023/01/24 11:02:54;;;;;;;18.05;14.43;;;2.60;99.90;;;;;;4985265;28;20050;-65
2023/01/24 11:05:22;;;;;;;17.80;14.25;;;2.60;99.90;;;;;;4985988;28;20038;-58
2023/01/24 11:08:01;;;;;;;18.20;14.68;;;2.80;99.90;;;;;;4986074;28;20101;-61
2023/01/24 11:10:34;;;;;;;18.15;13.88;;;2.60;99.90;;;;;;4985794;28;20357;-61
2023/01/24 11:13:02;;;;;;;17.52;14.35;;;3.30;99.90;;;;;;4986343;28;20070;-63
2023/01/24 11:15:35;;;;;;;19.50;14.82;;;3.00;99.90;;;;;;4984700;28;20109;-60
2023/01/24 11:18:20;;;;;;;19.30;14.80;;;2.60;99.90;;;;;;4985598;28;20078;-62
2023/01/24 11:20:46;;;;;;;;;;;2.90;99.90;;;;;;4985713;28;20046;-59
2023/01/24 11:23:16;;;;;;;18.63;14.32;;;3.40;99.90;;;;;;4985392;28;20397;-61
2023/01/24 11:26:01;;;;;;;18.10;14.43;;;3.00;99.90;;;;;;4985511;28;20035;-62
2023/01/24 11:28:37;;;;;;;18.60;14.48;;;3.00;99.90;;;;;;4985075;28;20128;-59
2023/01/24 11:31:14;;;;;;;17.90;13.82;;;3.00;99.90;;;;;;4985687;28;20053;-55
2023/01/24 11:33:52;;;;;;;19.30;15.00;;;3.60;99.90;;;;;;4984448;28;20125;-62
2023/01/24 11:36:53;;;;;;;20.90;15.68;;;3.20;99.90;;;;;;4985801;28;20074;-60
2023/01/24 11:39:45;;;;;;;20.35;15.05;;;3.30;99.90;;;;;;4982823;28;20058;-60
2023/01/24 11:42:33;;;;;;;19.25;14.25;;;3.00;99.90;;;;;;4956035;28;20098;-61
2023/01/24 11:45:25;;;;;;;17.88;14.38;;;2.90;99.90;;;;;;4985623;28;20281;-61
2023/01/24 11:48:13;;;;;;;19.23;14.75;;;3.10;99.90;;;;;;4984849;28;20439;-61
2023/01/24 11:51:04;;;;;;;19.08;14.93;;;2.90;99.90;;;;;;4984885;28;20157;-62
2023/01/24 11:53:35;;;;;;;19.95;14.45;;;2.90;99.90;;;;;;4985331;28;20046;-62
2023/01/24 11:56:09;;;;;;;18.73;14.65;;;3.00;99.90;;;;;;4984994;28;20101;-60
2023/01/24 11:58:43;;;;;;;20.63;15.82;;;3.20;99.90;;;;;;4985054;28;20034;-60
2023/01/24 12:01:32;;;;;;;19.88;15.23;;;3.20;99.90;;;;;;4984500;28;20101;-62
2023/01/24 12:04:23;;;;;;;18.25;14.80;;;2.90;99.90;;;;;;4964875;28;20077;-62
2023/01/24 12:07:13;;;;;;;18.35;14.50;;;3.20;99.90;;;;;;4984990;28;20046;-61
2023/01/24 12:10:11;;;;;;;18.20;14.70;;;3.30;99.90;;;;;;4984423;28;20065;-62
2023/01/24 12:12:40;;;;;;;19.52;15.18;;;2.90;99.90;;;;;;4980233;28;20077;-60
2023/01/24 12:15:24;;;;;;;19.45;14.90;;;2.90;99.90;;;;;;5001936;28;20137;-62
2023/01/24 12:18:08;;;;;;;17.90;11.90;;;2.90;99.90;;;;;;5001725;28;20080;-57
2023/01/24 12:20:49;;;;;;;20.33;15.60;;;3.50;99.90;;;;;;5001456;28;20077;-59
2023/01/24 12:23:37;;;;;;;19.80;15.60;;;3.30;99.90;;;;;;4990292;28;20049;-60
2023/01/24 12:26:18;;;;;;;20.67;15.50;;;3.40;99.90;;;;;;5002225;28;20040;-60
2023/01/24 12:29:06;;;;;;;20.67;15.25;;;3.40;99.90;;;;;;5001381;28;20068;-60
2023/01/24 12:31:37;;;;;;;19.73;15.75;;;4.20;99.90;;;;;;5004073;28;20136;-59
2023/01/24 12:34:19;;;;;;;20.33;16.55;;;3.70;99.90;;;;;;5005381;28;20053;-60
2023/01/24 12:36:56;;;;;;;24.15;17.63;;;3.60;99.90;;;;;;5005959;28;20446;-61
2023/01/24 12:39:29;;;;;;;21.83;16.88;;;3.70;99.90;;;;;;5005881;28;20050;-61
2023/01/24 12:42:01;;;;;;;23.63;16.33;;;3.30;99.90;;;;;;5005543;28;20038;-63
2023/01/24 12:44:34;;;;;;;777.88;84.88;;;4.00;99.90;;;;;;5006318;28;20141;-62
2023/01/24 12:47:25;;;;;;;22.65;17.92;;;3.90;99.90;;;;;;5005908;28;20402;-66
2023/01/24 12:50:01;;;;;;;20.73;16.85;;;3.60;99.90;;;;;;4999053;28;20760;-61
2023/01/24 12:52:39;;;;;;;20.60;16.80;;;3.40;99.90;;;;;;5006788;28;20077;-62
2023/01/24 12:55:20;;;;;;;23.83;17.02;;;3.00;99.90;;;;;;5008176;28;20046;-62
2023/01/24 12:58:03;;;;;;;20.48;16.48;;;2.00;99.90;;;;;;5006949;28;20089;-61
2023/01/24 13:00:50;;;;;;;23.08;16.45;;;3.00;99.90;;;;;;5038925;28;20414;-62
2023/01/24 13:03:31;;;;;;;23.73;16.58;;;3.00;99.90;;;;;;5007152;28;20046;-62
2023/01/24 13:06:19;;;;;;;21.25;16.88;;;3.10;99.90;;;;;;5006980;28;20077;-62
2023/01/24 13:08:53;;;;;;;20.30;16.45;;;2.70;99.90;;;;;;5007912;28;20042;-62
2023/01/24 13:11:21;;;;;;;21.00;16.35;;;2.90;99.90;;;;;;5007141;28;20537;-62
2023/01/24 13:14:04;;;;;;;20.65;16.25;;;2.90;99.90;;;;;;4997567;28;20068;-62
2023/01/24 13:16:42;;;;;;;19.75;16.17;;;2.70;99.90;;;;;;5006370;28;20058;-62
2023/01/24 13:19:19;;;;;;;20.48;16.13;;;2.50;99.90;;;;;;5005269;28;20620;-62
2023/01/24 13:22:28;;;;;;;22.52;17.25;;;2.60;99.90;;;;;;5004854;28;20046;-62
2023/01/24 13:25:17;;;;;;;23.88;17.40;;;2.80;99.90;;;;;;5004272;28;20070;-62
2023/01/24 13:28:10;;;;;;;23.42;18.33;;;2.60;99.90;;;;;;5003817;28;20160;-62
2023/01/24 13:31:10;;;;;;;22.58;18.17;;;2.50;99.90;;;;;;5005075;28;20092;-61
2023/01/24 13:33:46;;;;;;;21.27;16.42;;;3.40;99.90;;;;;;5004954;28;20067;-61